NCAR-RAP Real-Time Weather Data

Output produced by METARs form (18 August 2018  01:02 UTC)
found at http://weather.rap.ucar.edu/surface/
 
RJCM 180000Z 35014KT 9999 FEW020 SCT030 BKN050 16/09 Q1011
RJCM 172300Z 33010KT 9999 FEW015 SCT040 BKN050 15/09 Q1010
RJCM 172245Z 33010KT 290V010 9999 FEW015 SCT040 BKN050 15/09 Q1010 RMK 1ST015 3CU040 6CU050 A2984
RJCM 171100Z 32006KT 280V350 9999 -SHRA FEW007 SCT015 BKN040 13/11 Q1009
RJCM 171000Z 35013KT 9999 FEW007 SCT015 BKN040 13/11 Q1008
RJCM 170900Z 35016KT 9999 FEW007 SCT015 BKN020 13/11 Q1008
RJCM 170800Z 35013KT 7000 -SHRA FEW007 SCT015 BKN020 13/11 Q1007
RJCM 170741Z 35017KT 5000 R36/P1800N -SHRA BR FEW005 SCT010 BKN015 13/11 Q1007 RMK 1ST005 3ST010 5ST015 A2976 9999N
RJCM 170718Z 35015KT 4900 SHRA BR FEW005 SCT010 BKN015 13/11 Q1007 RMK 1ST005 3ST010 6ST015 A2976
RJCM 170700Z 35014KT 7000 -SHRA FEW005 SCT010 BKN015 13/12 Q1007
RJCM 170600Z 35014KT 5000 -SHRA BR FEW005 SCT010 BKN015 13/12 Q1007
RJCM 170545Z 36013KT 4900 -SHRA BR FEW005 SCT010 BKN015 13/11 Q1007 RMK 1ST005 3ST010 5ST015 A2976 9999S
RJCM 170500Z 36015KT 9999 -SHRA FEW005 SCT015 BKN060 13/11 Q1007
RJCM 170446Z 35015KT 9999 -SHRA FEW005 SCT010 BKN015 13/11 Q1007 RMK 1ST005 3ST010 5ST015 A2975
RJCM 170433Z 01015KT 8000 SHRA FEW005 SCT010 BKN015 13/11 Q1007 RMK 1ST005 3ST010 5ST015 A2975
RJCM 170400Z 36019KT 9999 -SHRA FEW005 SCT015 BKN040 13/11 Q1007
RJCM 170300Z 36016KT 9999 -SHRA FEW005 SCT010 BKN015 14/12 Q1006
RJCM 170200Z 36015KT 9999 -SHRA FEW007 SCT015 BKN030 13/12 Q1006
RJCM 170100Z 01015KT 9999 -SHRA FEW005 SCT010 BKN020 14/12 Q1006
RJCM 170039Z 01017KT 9999 -SHRA FEW005 SCT007 BKN010 14/12 Q1006 RMK 1ST005 3ST007 6ST010 A2971
RJCM 170018Z 01016KT 9999 R36/1600VP1800N SHRA FEW005 SCT010 BKN015 13/12 Q1006 RMK 1ST005 3ST010 5ST015 A2971
RJCM 170010Z 01015KT 4900 R36/P1800N +SHRA BR FEW005 SCT010 BKN015 13/11 Q1006 RMK 1ST005 3ST010 5ST015 A2971 RI++
RJCM 170000Z 01019KT 9999 -SHRA FEW005 SCT010 BKN015 13/12 Q1005
RJCM 162351Z 01017KT 7000 R36/1500VP1800N SHRA FEW005 SCT008 BKN010 13/12 Q1005 RMK 1ST005 3ST008 6ST010 A2970
RJCM 162338Z 01016G27KT 4900 R36/P1800N +SHRA BR FEW005 SCT008 BKN010 13/12 Q1005 RMK 1ST005 3ST008 6ST010 A2970
RJCM 162300Z 01015KT 9999 -SHRA FEW005 SCT010 BKN020 13/12 Q1005
RJCM 162245Z 02013KT 9999 -SHRA FEW005 SCT015 BKN020 13/11 Q1005 RMK 1ST005 3ST015 6CU020 A2969
RJCM 161120Z 02011KT 6000 SHRA FEW002 SCT010 BKN020 13/11 Q1006 RMK 1ST002 3ST010 6CU020 A2972
RJCM 161100Z 02013KT 6000 -SHRA FEW002 SCT010 BKN020 13/11 Q1006
RJCM 161015Z 02012KT 6000 -SHRA FEW002 SCT010 BKN015 13/11 Q1006 RMK 1ST002 3ST010 6ST015 A2972
RJCM 161000Z 02015KT 6000 SHRA FEW002 SCT010 BKN015 13/11 Q1006
RJCM 160916Z 02012KT 5000 SHRA BR FEW002 SCT010 BKN015 13/12 Q1007 RMK 1ST002 3ST010 6ST015 A2975
RJCM 160900Z 02013KT 5000 -SHRA BR FEW002 SCT010 BKN015 13/12 Q1007
RJCM 160835Z 02011KT 5000 SHRA BR FEW002 SCT010 BKN020 13/12 Q1007 RMK 1ST002 3ST010 6CU020 A2975
RJCM 160800Z 03013KT 6000 -SHRA FEW002 SCT010 BKN020 13/12 Q1007
RJCM 160747Z 03014KT 5000 -SHRA BR FEW002 SCT010 BKN020 13/12 Q1006 RMK 1ST002 3ST010 6CU020 A2973
RJCM 160700Z 05014KT 5000 R36/P1800N SHRA BR FEW002 SCT015 BKN020 13/11 Q1006
RJCM 160647Z 04013KT 7000 SHRA FEW002 SCT010 BKN015 13/12 Q1006 RMK 1ST002 3ST010 6ST015 A2973
RJCM 160600Z 05013KT 8000 -SHRA FEW002 SCT008 BKN010 14/13 Q1006
RJCM 160500Z 06011KT 5000 -SHRA BR FEW002 SCT005 BKN010 14/13 Q1007
RJCM 160434Z 05008KT 010V080 4900 SHRA BR FEW002 SCT005 BKN010 15/14 Q1007 RMK 1ST002 3ST005 5ST010 A2975
RJCM 160400Z 05009KT 5000 -SHRA BR FEW002 SCT006 BKN010 16/14 Q1007
RJCM 160342Z 05008KT 010V080 6000 -SHRA FEW002 SCT004 BKN030 16/14 Q1007 RMK 1ST002 3ST004 5CU030 A2975
RJCM 160317Z 02009KT 5000 SHRA BR FEW002 SCT004 BKN010 16/14 Q1008 RMK 1ST002 3ST004 5ST010 A2977
RJCM 160300Z 02009KT 6000 -SHRA FEW002 SCT004 BKN010 16/15 Q1008
RJCM 160250Z 02007KT 5000 -SHRA BR FEW002 SCT004 BKN015 16/14 Q1008 RMK 1ST002 3ST004 5ST015 A2977
RJCM 160200Z 02008KT 3200 R36/P1800N SHRA BR FEW002 SCT004 BKN015 16/15 Q1008
RJCM 160149Z 02008KT 4900 -SHRA BR FEW002 SCT004 BKN035 16/15 Q1008 RMK 1ST002 3ST004 5CU035 A2979
RJCM 160121Z 02009KT 5000 -SHRA BR FEW003 SCT005 BKN035 16/15 Q1008 RMK 1ST003 3ST005 6CU035 A2979
RJCM 160110Z 03009KT 3200 -SHRA BR FEW001 SCT003 BKN007 16/15 Q1008 RMK 1ST001 3ST003 5ST007 A2979
RJCM 160100Z 02009KT 3100 SHRA BR FEW001 SCT003 BKN007 16/15 Q1009
RJCM 160048Z 02008KT 3100 SHRA BR FEW001 SCT004 BKN007 16/14 Q1009 RMK 1ST001 3ST004 6ST007 A2980
RJCM 160043Z 01008KT 3500 SHRA BR FEW001 SCT004 BKN007 16/14 Q1009 RMK 1ST001 3ST004 6ST007 A2981
RJCM 160038Z 01007KT 4900 -SHRA BR FEW001 SCT004 BKN007 16/15 Q1009 RMK 1ST001 3ST004 6ST007 A2981
RJCM 160000Z 03006KT 7000 -SHRA FEW001 SCT005 BKN007 16/15 Q1009
RJCM 152315Z 02004KT 7000 -DZ FEW001 SCT005 BKN007 16/14 Q1009 RMK 1ST001 3ST005 6ST007 A2982
RJCM 152300Z 04005KT 6000 -DZ FEW001 SCT002 BKN006 16/14 Q1010
RJCM 152245Z 05005KT 7000 FEW002 SCT005 BKN006 16/15 Q1010 RMK 1ST002 3ST005 7ST006 A2984